createdAt,value
2024-05-09T00:00:40.227Z,12.55
2024-05-09T00:03:10.256Z,11.05
2024-05-09T00:05:40.852Z,11.23
2024-05-09T00:08:10.515Z,11.68
2024-05-09T00:10:41.744Z,13.57
2024-05-09T00:13:10.736Z,14.73
2024-05-09T00:15:39.028Z,10.02
2024-05-09T00:18:08.172Z,10.63
2024-05-09T00:20:39.605Z,13.07
2024-05-09T00:23:09.267Z,9.82
2024-05-09T00:25:37.136Z,10.75
2024-05-09T00:28:07.434Z,13.52
2024-05-09T00:30:37.234Z,11.73
2024-05-09T00:33:06.709Z,17.45
2024-05-09T00:35:35.554Z,11.00
2024-05-09T00:38:03.273Z,12.35
2024-05-09T00:40:39.140Z,11.75
2024-05-09T00:43:13.927Z,11.95
2024-05-09T00:45:42.776Z,12.25
2024-05-09T00:48:14.953Z,10.93
2024-05-09T00:50:46.743Z,9.70
2024-05-09T00:53:16.950Z,13.57
2024-05-09T00:55:45.242Z,11.48
2024-05-09T00:58:17.018Z,12.05
2024-05-09T01:00:45.200Z,11.43
2024-05-09T01:03:14.240Z,10.32
2024-05-09T01:05:43.547Z,11.40
2024-05-09T01:08:12.203Z,13.13
2024-05-09T01:10:42.879Z,15.38
2024-05-09T01:13:14.983Z,12.82
2024-05-09T01:15:42.819Z,17.13
2024-05-09T01:18:12.465Z,12.30
2024-05-09T01:20:43.925Z,13.13
2024-05-09T01:23:16.624Z,13.68
2024-05-09T01:25:45.151Z,11.85
2024-05-09T01:28:13.196Z,9.82
2024-05-09T01:30:51.329Z,11.10
2024-05-09T01:33:18.806Z,9.77
2024-05-09T01:35:46.853Z,9.98
2024-05-09T01:38:17.437Z,9.93
2024-05-09T01:40:45.764Z,13.60
2024-05-09T01:43:13.144Z,11.13
2024-05-09T01:45:41.591Z,12.27
2024-05-09T01:48:10.571Z,13.93
2024-05-09T01:50:41.649Z,10.45
2024-05-09T01:53:12.790Z,11.70
2024-05-09T01:55:43.431Z,12.02
2024-05-09T01:58:10.968Z,12.15
2024-05-09T02:00:41.506Z,12.00
2024-05-09T02:03:14.892Z,13.73
2024-05-09T02:05:45.933Z,14.13
2024-05-09T02:08:15.176Z,13.40
2024-05-09T02:10:45.967Z,12.90
2024-05-09T02:13:13.749Z,12.63
2024-05-09T02:15:41.537Z,12.40
2024-05-09T02:18:09.351Z,12.20
2024-05-09T02:20:40.079Z,11.00
2024-05-09T02:23:09.444Z,12.25
2024-05-09T02:25:37.076Z,14.27
2024-05-09T02:28:07.553Z,10.00
2024-05-09T02:30:40.035Z,11.02
2024-05-09T02:33:11.705Z,13.27
2024-05-09T02:35:41.266Z,12.93
2024-05-09T02:38:10.268Z,11.23
2024-05-09T02:40:39.430Z,14.77
2024-05-09T02:43:12.899Z,19.30
2024-05-09T02:45:40.980Z,12.45
2024-05-09T02:48:11.722Z,11.75
2024-05-09T02:50:40.729Z,11.98
2024-05-09T02:53:09.418Z,12.77
2024-05-09T02:55:38.178Z,14.88
2024-05-09T02:58:10.290Z,14.50
2024-05-09T03:00:41.256Z,13.68
2024-05-09T03:03:12.603Z,12.55
2024-05-09T03:05:42.269Z,12.32
2024-05-09T03:08:10.078Z,12.75
2024-05-09T03:10:38.974Z,12.40
2024-05-09T03:13:13.200Z,12.85
2024-05-09T03:15:42.130Z,12.85
2024-05-09T03:18:10.062Z,13.80
2024-05-09T03:20:38.407Z,13.68
2024-05-09T03:23:08.655Z,14.20
2024-05-09T03:25:37.993Z,15.18
2024-05-09T03:28:06.400Z,15.50
2024-05-09T03:30:41.362Z,16.05
2024-05-09T03:33:10.877Z,18.30
2024-05-09T03:35:38.563Z,15.73
2024-05-09T03:38:05.957Z,18.85
2024-05-09T03:40:34.083Z,17.92
2024-05-09T03:43:01.511Z,15.43
2024-05-09T03:45:28.773Z,17.10
2024-05-09T03:47:58.947Z,15.50
2024-05-09T03:50:33.634Z,12.93
2024-05-09T03:53:03.816Z,15.43
2024-05-09T03:55:32.169Z,12.68
2024-05-09T03:57:59.910Z,13.27
2024-05-09T04:00:35.611Z,14.07
2024-05-09T04:03:11.307Z,18.75
2024-05-09T04:05:41.603Z,20.67
2024-05-09T04:08:10.432Z,17.70
2024-05-09T04:10:39.051Z,13.32
2024-05-09T04:13:06.828Z,18.83
2024-05-09T04:15:34.125Z,23.02
2024-05-09T04:18:02.202Z,15.52
2024-05-09T04:20:38.275Z,11.55
2024-05-09T04:23:11.262Z,14.20
2024-05-09T04:25:41.606Z,16.65
2024-05-09T04:28:09.142Z,17.58
2024-05-09T04:30:39.639Z,18.83
2024-05-09T04:33:11.418Z,21.33
2024-05-09T04:35:44.135Z,14.50
2024-05-09T04:38:11.998Z,13.82
2024-05-09T04:40:39.536Z,14.15
2024-05-09T04:43:13.910Z,17.98
2024-05-09T04:45:41.390Z,15.48
2024-05-09T04:48:09.411Z,15.68
2024-05-09T04:50:39.044Z,17.35
2024-05-09T04:53:11.476Z,16.67
2024-05-09T04:55:40.881Z,13.50
2024-05-09T04:58:09.200Z,12.65
2024-05-09T05:00:38.449Z,14.57
2024-05-09T05:03:10.850Z,9.23
2024-05-09T05:05:41.532Z,19.35
2024-05-09T05:08:15.126Z,15.00
2024-05-09T05:10:43.693Z,14.00
2024-05-09T05:13:11.590Z,13.45
2024-05-09T05:15:38.922Z,14.95
2024-05-09T05:18:06.667Z,12.80
2024-05-09T05:20:34.735Z,12.43
2024-05-09T05:23:02.529Z,14.73
2024-05-09T05:25:32.693Z,11.93
2024-05-09T05:28:00.234Z,11.68
2024-05-09T05:30:32.768Z,13.48
2024-05-09T05:33:02.098Z,10.75
2024-05-09T05:35:29.806Z,10.43
2024-05-09T05:37:57.433Z,11.55
2024-05-09T05:40:33.002Z,11.55
2024-05-09T05:43:07.947Z,10.38
2024-05-09T05:45:35.502Z,9.77
2024-05-09T05:48:05.918Z,13.18
2024-05-09T05:50:37.412Z,9.60
2024-05-09T05:53:07.372Z,12.27
2024-05-09T05:55:39.641Z,12.95
2024-05-09T05:58:12.373Z,8.55
2024-05-09T06:00:41.435Z,10.10
2024-05-09T06:03:10.364Z,12.38
2024-05-09T06:05:38.485Z,9.15
2024-05-09T06:08:07.006Z,8.65
2024-05-09T06:10:38.539Z,11.52
2024-05-09T06:13:10.744Z,12.23
2024-05-09T06:15:38.202Z,10.10
2024-05-09T06:18:06.355Z,16.65
2024-05-09T06:20:36.818Z,13.45
2024-05-09T06:23:06.363Z,11.57
2024-05-09T06:25:34.260Z,8.32
2024-05-09T06:28:01.882Z,24.23
2024-05-09T06:30:38.340Z,11.07
2024-05-09T06:33:11.811Z,7.80
2024-05-09T06:35:41.915Z,8.18
2024-05-09T06:38:09.954Z,7.68
2024-05-09T06:40:41.885Z,10.05
2024-05-09T06:43:11.616Z,10.65
2024-05-09T06:45:41.949Z,6.40
2024-05-09T06:48:10.306Z,9.98
2024-05-09T06:50:39.603Z,9.48
2024-05-09T06:53:08.322Z,12.13
2024-05-09T06:55:37.343Z,8.38
2024-05-09T06:58:06.711Z,7.10
2024-05-09T07:00:39.163Z,7.30
2024-05-09T07:03:13.998Z,5.30
2024-05-09T07:05:44.812Z,7.55
2024-05-09T07:08:13.042Z,6.45
2024-05-09T07:10:40.582Z,8.25
2024-05-09T07:13:10.974Z,7.60
2024-05-09T07:15:38.453Z,10.85
2024-05-09T07:18:13.021Z,6.38
2024-05-09T07:20:41.353Z,6.40
2024-05-09T07:23:09.362Z,9.15
2024-05-09T07:25:37.027Z,12.10
2024-05-09T07:28:04.966Z,7.82
2024-05-09T07:30:34.463Z,6.97
2024-05-09T07:33:03.209Z,14.48
2024-05-09T07:35:33.897Z,8.43
2024-05-09T07:38:01.650Z,7.45
2024-05-09T07:40:35.364Z,8.13
2024-05-09T07:43:04.654Z,7.68
2024-05-09T07:45:48.212Z,7.28
2024-05-09T07:52:37.240Z,8.32
2024-05-09T07:53:45.446Z,4.43
2024-05-09T07:56:16.835Z,6.95
2024-05-09T07:58:46.615Z,7.07
2024-05-09T08:01:14.019Z,6.25
2024-05-09T08:03:41.751Z,7.78
2024-05-09T08:06:11.747Z,9.73
2024-05-09T08:08:39.109Z,7.97
2024-05-09T08:11:06.909Z,7.85
2024-05-09T08:13:34.377Z,9.13
2024-05-09T08:16:01.745Z,7.47
2024-05-09T08:18:29.595Z,5.10
2024-05-09T08:20:57.131Z,7.75
2024-05-09T08:23:27.080Z,6.93
2024-05-09T08:25:54.509Z,8.65
2024-05-09T08:28:22.085Z,7.72
2024-05-09T08:30:50.145Z,8.18
2024-05-09T08:33:17.860Z,5.47
2024-05-09T08:35:45.318Z,4.57
2024-05-09T08:38:12.600Z,6.13
2024-05-09T08:40:42.949Z,4.97
2024-05-09T08:43:12.172Z,7.60
2024-05-09T08:45:41.016Z,8.25
2024-05-09T08:48:09.127Z,6.53
2024-05-09T08:50:40.649Z,5.72
2024-05-09T08:53:09.208Z,6.20
2024-05-09T08:55:40.593Z,8.38
2024-05-09T08:58:16.221Z,5.63
2024-05-09T09:00:50.136Z,7.28
2024-05-09T09:03:19.763Z,8.75
2024-05-09T09:05:54.989Z,8.75
2024-05-09T09:08:23.014Z,7.28
2024-05-09T09:10:51.373Z,6.57
2024-05-09T09:13:21.447Z,6.20
2024-05-09T09:15:49.258Z,10.48
2024-05-09T09:18:17.498Z,7.38
2024-05-09T09:20:45.448Z,9.15
2024-05-09T09:23:13.046Z,7.80
2024-05-09T09:25:40.729Z,6.32
2024-05-09T09:28:08.976Z,10.10
2024-05-09T09:30:42.349Z,7.93
2024-05-09T09:33:10.646Z,7.35
2024-05-09T09:35:40.811Z,5.65
2024-05-09T09:38:09.310Z,8.07
2024-05-09T09:40:42.838Z,8.15
2024-05-09T09:43:19.171Z,12.95
2024-05-09T09:45:51.533Z,11.25
2024-05-09T09:48:20.567Z,8.90
2024-05-09T09:50:49.190Z,10.48
2024-05-09T09:53:17.468Z,7.03
2024-05-09T09:55:45.263Z,9.05
2024-05-09T09:58:14.835Z,6.85
2024-05-09T10:00:43.174Z,6.60
2024-05-09T10:03:13.673Z,6.13
2024-05-09T10:05:43.955Z,5.38
2024-05-09T10:08:14.360Z,5.63
2024-05-09T10:10:46.947Z,5.50
2024-05-09T10:13:14.637Z,5.88
2024-05-09T10:15:45.783Z,8.25
2024-05-09T10:18:16.512Z,7.30
2024-05-09T10:20:45.660Z,10.00
2024-05-09T10:23:26.577Z,7.38
2024-05-09T10:25:58.626Z,5.53
2024-05-09T10:28:26.701Z,7.57
2024-05-09T10:31:07.584Z,7.53
2024-05-09T10:33:46.442Z,8.68
2024-05-09T10:36:14.745Z,11.13
2024-05-09T10:38:43.459Z,8.55
2024-05-09T10:41:11.894Z,5.97
2024-05-09T10:43:40.536Z,8.00
2024-05-09T10:46:08.436Z,6.80
2024-05-09T10:48:37.725Z,6.65
2024-05-09T10:51:09.134Z,5.32
2024-05-09T10:53:41.474Z,6.72
2024-05-09T10:56:09.458Z,11.38
2024-05-09T10:58:36.967Z,9.02
2024-05-09T11:01:07.213Z,6.05
2024-05-09T11:03:35.993Z,6.32
2024-05-09T11:06:04.129Z,6.20
2024-05-09T11:08:36.462Z,6.82
2024-05-09T11:11:04.025Z,4.32
2024-05-09T11:13:32.365Z,5.93
2024-05-09T11:16:01.209Z,5.63
2024-05-09T11:18:33.259Z,4.40
2024-05-09T11:21:04.036Z,4.55
2024-05-09T11:23:31.423Z,3.72
2024-05-09T11:26:01.366Z,5.72
2024-05-09T11:28:29.181Z,6.70
2024-05-09T11:31:05.997Z,7.03
2024-05-09T11:33:36.730Z,7.88
2024-05-09T11:36:05.805Z,7.95
2024-05-09T11:38:33.207Z,4.63
2024-05-09T11:41:03.689Z,5.88
2024-05-09T11:43:31.108Z,5.40
2024-05-09T11:45:59.027Z,9.70
2024-05-09T11:48:26.941Z,7.03
2024-05-09T11:50:55.327Z,6.22
2024-05-09T11:53:22.884Z,7.18
2024-05-09T11:55:50.337Z,5.35
2024-05-09T11:58:21.425Z,6.45
2024-05-09T12:00:49.509Z,7.75
2024-05-09T12:03:17.081Z,6.93
2024-05-09T12:05:45.289Z,5.13
2024-05-09T12:08:13.015Z,5.95
2024-05-09T12:10:40.853Z,8.40
2024-05-09T12:13:08.554Z,8.95
2024-05-09T12:15:39.313Z,7.90
2024-05-09T12:18:08.202Z,5.63
2024-05-09T12:20:39.054Z,6.80
2024-05-09T12:23:10.228Z,5.70
2024-05-09T12:25:38.919Z,6.38
2024-05-09T12:28:06.999Z,7.90
2024-05-09T12:30:38.763Z,6.30
2024-05-09T12:33:12.543Z,8.98
2024-05-09T12:35:43.368Z,5.72
2024-05-09T12:38:13.201Z,7.50
2024-05-09T12:40:40.513Z,7.88
2024-05-09T12:43:09.404Z,6.68
2024-05-09T12:45:38.538Z,5.10
2024-05-09T12:48:07.481Z,6.78
2024-05-09T12:50:38.262Z,8.13
2024-05-09T12:53:06.074Z,5.53
2024-05-09T12:55:41.136Z,10.57
2024-05-09T12:58:16.152Z,5.55
2024-05-09T13:00:44.528Z,6.00
2024-05-09T13:03:12.965Z,5.90
2024-05-09T13:05:43.196Z,5.75
2024-05-09T13:08:10.867Z,9.00
2024-05-09T13:10:38.386Z,8.63
2024-05-09T13:13:05.962Z,5.28
2024-05-09T13:15:34.609Z,4.13
2024-05-09T13:18:03.617Z,7.20
2024-05-09T13:20:34.123Z,6.68
2024-05-09T13:23:07.933Z,6.80
2024-05-09T13:25:36.570Z,10.45
2024-05-09T13:28:05.186Z,8.25
2024-05-09T13:30:39.997Z,7.65
2024-05-09T13:33:10.301Z,8.05
2024-05-09T13:35:38.601Z,6.63
2024-05-09T13:38:08.501Z,8.02
2024-05-09T13:40:36.791Z,9.10
2024-05-09T13:43:05.190Z,9.45
2024-05-09T13:45:33.523Z,6.10
2024-05-09T13:48:01.645Z,7.20
2024-05-09T13:50:34.572Z,9.82
2024-05-09T13:53:04.174Z,8.25
2024-05-09T13:55:34.239Z,8.18
2024-05-09T13:58:02.168Z,7.85
2024-05-09T14:00:42.046Z,6.93
2024-05-09T14:03:15.521Z,7.18
2024-05-09T14:05:43.703Z,8.70
2024-05-09T14:08:11.913Z,8.15
2024-05-09T14:10:42.056Z,7.22
2024-05-09T14:13:09.527Z,8.95
2024-05-09T14:15:37.090Z,14.82
2024-05-09T14:18:05.358Z,17.30
2024-05-09T14:20:32.904Z,10.27
2024-05-09T14:23:00.923Z,8.82
2024-05-09T14:25:28.895Z,8.98
2024-05-09T14:27:59.315Z,11.55
2024-05-09T14:30:34.655Z,7.78
2024-05-09T14:33:06.543Z,8.20
2024-05-09T14:35:34.674Z,9.38
2024-05-09T14:38:02.421Z,6.88
2024-05-09T14:40:39.072Z,11.43
2024-05-09T14:43:15.129Z,9.15
2024-05-09T14:45:43.763Z,7.25
2024-05-09T14:48:12.218Z,9.02
2024-05-09T14:50:40.804Z,11.95
2024-05-09T14:53:09.164Z,6.30
2024-05-09T14:55:38.126Z,6.28
2024-05-09T14:58:07.023Z,6.10
2024-05-09T15:00:41.307Z,7.00
2024-05-09T15:03:11.944Z,7.40
2024-05-09T15:05:39.518Z,10.10
2024-05-09T15:08:07.822Z,7.75
2024-05-09T15:10:36.773Z,8.63
2024-05-09T15:13:07.220Z,9.48
2024-05-09T15:15:39.432Z,9.63
2024-05-09T15:18:07.602Z,10.05
2024-05-09T15:20:37.069Z,9.52
2024-05-09T15:23:07.136Z,8.43
2024-05-09T15:25:36.319Z,13.00
2024-05-09T15:28:04.763Z,10.32
2024-05-09T15:30:33.946Z,7.78
2024-05-09T15:33:06.895Z,8.05
2024-05-09T15:35:35.123Z,10.95
2024-05-09T15:38:03.605Z,8.70
2024-05-09T15:40:39.431Z,8.80
2024-05-09T15:43:11.199Z,12.50
2024-05-09T15:45:40.840Z,8.98
2024-05-09T15:48:12.087Z,12.32
2024-05-09T15:50:41.742Z,9.65
2024-05-09T15:53:10.984Z,10.95
2024-05-09T15:55:39.516Z,12.13
2024-05-09T15:58:07.774Z,11.30
2024-05-09T16:00:39.630Z,10.13
2024-05-09T16:03:14.300Z,9.38
2024-05-09T16:05:44.148Z,10.07
2024-05-09T16:08:12.365Z,14.65
2024-05-09T16:10:44.099Z,11.18
2024-05-09T16:13:12.813Z,9.23
2024-05-09T16:15:40.631Z,13.43
2024-05-09T16:18:08.805Z,13.65
2024-05-09T16:20:41.484Z,13.35
2024-05-09T16:23:10.742Z,11.88
2024-05-09T16:25:40.053Z,11.95
2024-05-09T16:28:10.472Z,12.30
2024-05-09T16:30:38.702Z,13.60
2024-05-09T16:33:06.814Z,12.10
2024-05-09T16:35:34.287Z,11.75
2024-05-09T16:38:05.144Z,13.43
2024-05-09T16:40:38.768Z,16.42
2024-05-09T16:43:09.220Z,18.63
2024-05-09T16:45:37.660Z,14.02
2024-05-09T16:48:06.907Z,13.52
2024-05-09T16:50:35.725Z,13.73
2024-05-09T16:53:07.048Z,16.05
2024-05-09T16:55:36.128Z,14.77
2024-05-09T16:58:04.467Z,17.38
2024-05-09T17:00:40.205Z,16.70
2024-05-09T17:03:15.313Z,18.05
2024-05-09T17:05:43.788Z,18.33
2024-05-09T17:08:15.975Z,19.95
2024-05-09T17:10:43.450Z,16.80
2024-05-09T17:13:10.894Z,18.77
2024-05-09T17:15:38.368Z,15.45
2024-05-09T17:18:07.076Z,21.92
2024-05-09T17:20:37.579Z,20.27
2024-05-09T17:23:06.573Z,17.08
2024-05-09T17:25:37.170Z,20.63
2024-05-09T17:28:05.274Z,18.20
2024-05-09T17:30:36.445Z,20.42
2024-05-09T17:33:07.492Z,20.83
2024-05-09T17:35:35.639Z,20.70
2024-05-09T17:38:03.161Z,21.20
2024-05-09T17:40:34.760Z,22.20
2024-05-09T17:43:08.793Z,24.55
2024-05-09T17:45:37.814Z,28.33
2024-05-09T17:48:06.010Z,22.85
2024-05-09T17:50:36.167Z,23.38
2024-05-09T17:53:05.896Z,22.55
2024-05-09T17:55:33.731Z,18.42
2024-05-09T17:58:01.656Z,26.05
2024-05-09T18:00:38.613Z,21.35
2024-05-09T18:03:09.389Z,22.38
2024-05-09T18:05:37.856Z,22.73
2024-05-09T18:08:06.289Z,26.55
2024-05-09T18:10:38.145Z,25.63
2024-05-09T18:13:07.965Z,26.85
2024-05-09T18:15:38.689Z,25.02
2024-05-09T18:18:07.100Z,28.67
2024-05-09T18:20:42.389Z,27.05
2024-05-09T18:23:13.534Z,27.23
2024-05-09T18:25:42.053Z,23.02
2024-05-09T18:28:09.789Z,20.70
2024-05-09T18:30:40.587Z,21.30
2024-05-09T18:33:09.912Z,24.48
2024-05-09T18:35:37.704Z,29.50
2024-05-09T18:38:13.247Z,22.25
2024-05-09T18:40:43.643Z,28.33
2024-05-09T18:43:12.627Z,25.52
2024-05-09T18:45:42.614Z,24.88
2024-05-09T18:48:10.462Z,31.90
2024-05-09T18:50:40.419Z,28.70
2024-05-09T18:53:09.284Z,25.38
2024-05-09T18:55:36.586Z,31.77
2024-05-09T18:58:04.943Z,26.95
2024-05-09T19:00:36.341Z,24.75
2024-05-09T19:03:12.210Z,26.73
2024-05-09T19:05:42.177Z,23.77
2024-05-09T19:08:10.669Z,26.83
2024-05-09T19:10:39.327Z,24.58
2024-05-09T19:13:11.033Z,29.77
2024-05-09T19:15:41.095Z,29.13
2024-05-09T19:18:13.712Z,29.23
2024-05-09T19:20:42.487Z,22.20
2024-05-09T19:23:10.050Z,25.58
2024-05-09T19:25:37.329Z,23.85
2024-05-09T19:28:05.756Z,27.80
2024-05-09T19:30:39.016Z,29.40
2024-05-09T19:33:13.318Z,26.35
2024-05-09T19:35:41.662Z,27.83
2024-05-09T19:38:09.115Z,23.40
2024-05-09T19:40:36.762Z,24.98
2024-05-09T19:43:05.506Z,28.60
2024-05-09T19:45:34.768Z,25.30
2024-05-09T19:48:03.418Z,25.02
2024-05-09T19:50:41.145Z,24.70
2024-05-09T19:53:12.826Z,27.92
2024-05-09T19:55:41.108Z,26.77
2024-05-09T19:58:09.234Z,27.35
2024-05-09T20:00:40.344Z,31.00
2024-05-09T20:03:10.611Z,30.67
2024-05-09T20:05:42.210Z,26.40
2024-05-09T20:08:09.730Z,25.40
2024-05-09T20:10:37.499Z,29.42
2024-05-09T20:13:07.124Z,26.45
2024-05-09T20:15:37.001Z,27.45
2024-05-09T20:18:05.532Z,29.85
2024-05-09T20:20:39.280Z,30.20
2024-05-09T20:23:12.944Z,25.90
2024-05-09T20:25:40.702Z,32.60
2024-05-09T20:28:08.398Z,29.25
2024-05-09T20:30:36.631Z,28.33
2024-05-09T20:33:07.170Z,30.63
2024-05-09T20:35:36.503Z,33.10
2024-05-09T20:38:04.821Z,33.00
2024-05-09T20:40:38.460Z,36.33
2024-05-09T20:43:08.407Z,31.65
2024-05-09T20:45:36.432Z,36.50
2024-05-09T20:48:04.534Z,37.00
2024-05-09T20:50:39.221Z,37.92
2024-05-09T20:53:12.729Z,31.25
2024-05-09T20:55:44.950Z,33.05
2024-05-09T20:58:13.110Z,36.05
2024-05-09T21:00:43.993Z,37.70
2024-05-09T21:03:15.591Z,34.75
2024-05-09T21:05:44.898Z,34.47
2024-05-09T21:08:12.394Z,31.52
2024-05-09T21:10:40.373Z,36.47
2024-05-09T21:13:10.461Z,37.42
2024-05-09T21:15:37.799Z,45.25
2024-05-09T21:18:05.519Z,35.55
2024-05-09T21:20:33.715Z,40.03
2024-05-09T21:23:01.915Z,44.70
2024-05-09T21:25:31.233Z,39.05
2024-05-09T21:27:58.878Z,40.40
2024-05-09T21:30:38.485Z,41.80
2024-05-09T21:33:11.246Z,37.63
2024-05-09T21:35:40.455Z,37.30
2024-05-09T21:38:07.998Z,42.63
2024-05-09T21:40:36.914Z,37.22
2024-05-09T21:43:05.722Z,45.53
2024-05-09T21:45:36.686Z,39.75
2024-05-09T21:48:04.994Z,42.50
2024-05-09T21:50:39.247Z,41.17
2024-05-09T21:53:09.013Z,30.55
2024-05-09T21:55:36.768Z,32.78
2024-05-09T21:58:04.499Z,35.42
2024-05-09T22:00:36.653Z,43.00
2024-05-09T22:03:10.511Z,37.20
2024-05-09T22:05:40.094Z,34.28
2024-05-09T22:08:08.487Z,37.08
2024-05-09T22:10:37.149Z,40.30
2024-05-09T22:13:05.766Z,42.58
2024-05-09T22:15:36.186Z,40.63
2024-05-09T22:18:05.222Z,45.22
2024-05-09T22:20:38.711Z,41.78
2024-05-09T22:23:07.658Z,40.90
2024-05-09T22:25:35.601Z,38.88
2024-05-09T22:28:03.821Z,45.55
2024-05-09T22:30:36.345Z,43.90
2024-05-09T22:33:07.140Z,40.88
2024-05-09T22:35:37.862Z,37.92
2024-05-09T22:38:05.677Z,44.75
2024-05-09T22:40:42.731Z,52.03
2024-05-09T22:43:18.036Z,38.17
2024-05-09T22:45:45.663Z,45.03
2024-05-09T22:48:13.049Z,46.53
2024-05-09T22:50:45.534Z,51.67
2024-05-09T22:53:12.872Z,41.97
2024-05-09T22:55:40.290Z,44.05
2024-05-09T22:58:08.006Z,47.03
2024-05-09T23:00:35.721Z,42.35
2024-05-09T23:03:04.191Z,46.40
2024-05-09T23:05:33.044Z,43.60
2024-05-09T23:08:03.675Z,37.42
2024-05-09T23:10:35.950Z,39.40
2024-05-09T23:13:06.592Z,43.47
2024-05-09T23:15:35.299Z,42.17
2024-05-09T23:18:02.724Z,49.90
2024-05-09T23:20:37.050Z,39.42
2024-05-09T23:23:10.965Z,37.72
2024-05-09T23:25:39.688Z,44.00
2024-05-09T23:28:07.480Z,40.67
2024-05-09T23:30:38.899Z,33.65
2024-05-09T23:33:08.714Z,41.55
2024-05-09T23:35:36.324Z,32.03
2024-05-09T23:38:04.246Z,31.13
2024-05-09T23:40:39.455Z,35.15
2024-05-09T23:43:09.203Z,36.47
2024-05-09T23:45:37.426Z,40.53
2024-05-09T23:48:05.811Z,41.47
2024-05-09T23:50:37.035Z,32.40
2024-05-09T23:53:07.647Z,35.65
2024-05-09T23:55:39.488Z,31.25
2024-05-09T23:58:08.366Z,34.88
